Flight Track Log - Related Links

Times and Time Zones

All times are in EDT time to prevent confusion due to time zone crossing. See the AAY580 flight status page for this flight to view local times or setup timezone preferences in your user account.

Time Position Orientation Groundspeed Altitude Reporting Facility
EDT Latitude Longitude Course Direction KTS MPH feet Rate Location/Type
Mon 11:18:25 AM 36.0767 -115.1706 267° West 231 266 3,100  Level Los Angeles Center
Mon 11:19:19 AM 36.0739 -115.2381 267° West 233 268 4,300 1,607 Climbing Los Angeles Center
Mon 11:20:17 AM 36.0242 -115.2758 212° Southwest 344 396 6,100 1,400 Climbing Los Angeles Center
Mon 11:21:19 AM 35.9558 -115.3181 207° Southwest 295 339 7,100 1,403 Climbing Los Angeles Center
Mon 11:22:21 AM 35.9014 -115.3911 227° Southwest 290 334 9,000 1,645 Climbing Los Angeles Center
Mon 11:23:23 AM 35.8881 -115.5103 262° West 301 346 10,500 1,016 Climbing Los Angeles Center
Mon 11:24:25 AM 35.8886 -115.6253 270° West 341 392 11,100 1,016 Climbing Los Angeles Center
Mon 11:25:27 AM 35.8928 -115.7711 272° West 393 452 12,600 1,887 Climbing Los Angeles Center
Mon 11:26:29 AM 35.8964 -115.9086 272° West 400 460 15,000 2,468 Climbing Los Angeles Center
Mon 11:27:31 AM 35.9556 -116.0347 300° West 413 475 17,700 2,226 Climbing Los Angeles Center
Mon 11:28:33 AM 36.0397 -116.1364 316° Northwest 424 488 19,600 1,548 Climbing Los Angeles Center
Mon 11:29:35 AM 36.1253 -116.2333 318° Northwest 440 506 20,900 1,500 Climbing Los Angeles Center
Mon 11:30:37 AM 36.2164 -116.3389 317° Northwest 448 516 22,700 1,694 Climbing Los Angeles Center
Mon 11:31:39 AM 36.3089 -116.4486 316° Northwest 457 526 24,400 1,887 Climbing Los Angeles Center
Mon 11:32:41 AM 36.4214 -116.5756 318° Northwest 458 527 26,600 1,790 Climbing Los Angeles Center
Mon 11:33:43 AM 36.5117 -116.6856 316° Northwest 458 527 28,100 1,452 Climbing Los Angeles Center
Mon 11:34:45 AM 36.6078 -116.7856 320° Northwest 458 527 29,600 1,258 Climbing Los Angeles Center
Mon 11:35:47 AM 36.7181 -116.8608 331° Northwest 457 526 30,700 1,016 Climbing Los Angeles Center
Mon 11:36:49 AM 36.8256 -116.9439 328° Northwest 454 522 31,700 634 Climbing Los Angeles Center
Mon 11:37:50 AM 36.9517 -117.0450 327° Northwest 450 518 32,000 146 Climbing Los Angeles Center
Mon 11:38:52 AM 37.0597 -117.1247 330° Northwest 450 518 32,000  Level Los Angeles Center
Mon 11:39:54 AM 37.1678 -117.2092 328° Northwest 454 522 32,000  Level Los Angeles Center
Mon 11:40:55 AM 37.2744 -117.2936 328° Northwest 450 518 32,000  Level Oakland Center
Mon 11:41:56 AM 37.3781 -117.3764 328° Northwest 440 506 32,000  Level Oakland Center
Mon 11:42:58 AM 37.4794 -117.4686 324° Northwest 446 513 32,000  Level Oakland Center
Mon 11:43:59 AM 37.5817 -117.5611 324° Northwest 448 516 32,000  Level Oakland Center
Mon 11:45:00 AM 37.6842 -117.6511 325° Northwest 446 513 32,000  Level Oakland Center
Mon 11:46:02 AM 37.7847 -117.7464 323° Northwest 447 514 32,000  Level Oakland Center
Mon 11:47:03 AM 37.8875 -117.8358 326° Northwest 447 514 32,000  Level Oakland Center
Mon 11:48:04 AM 37.9878 -117.9328 323° Northwest 449 517 32,000  Level Oakland Center
Mon 11:49:06 AM 38.0911 -118.0247 325° Northwest 449 517 32,000  Level Oakland Center
Mon 11:50:07 AM 38.2025 -118.1339 322° Northwest 454 522 32,000  Level Oakland Center
Mon 11:51:09 AM 38.3056 -118.2272 325° Northwest 456 525 32,000  Level Oakland Center
Mon 11:52:10 AM 38.4056 -118.3247 323° Northwest 453 521 32,000  Level Oakland Center
Mon 11:53:11 AM 38.5083 -118.4189 324° Northwest 455 524 32,000  Level Oakland Center
Mon 11:54:13 AM 38.6100 -118.5186 323° Northwest 458 527 32,000  Level Oakland Center
Mon 11:55:14 AM 38.7128 -118.6164 323° Northwest 459 528 32,000  Level Oakland Center
Mon 11:56:16 AM 38.8372 -118.7325 324° Northwest 459 528 32,000  Level Oakland Center
Mon 11:57:17 AM 38.9364 -118.8336 322° Northwest 455 524 32,000  Level Oakland Center
Mon 11:58:19 AM 39.0386 -118.9294 324° Northwest 452 520 32,000  Level Oakland Center
Mon 11:59:20 AM 39.1378 -119.0294 322° Northwest 449 517 32,000  Level Oakland Center
Mon 12:00:22 PM 39.2469 -119.1164 328° Northwest 456 525 32,000  Level Oakland Center
Mon 12:01:23 PM 39.3731 -119.1622 344° North 466 536 32,000 195 Level Oakland Center
Mon 12:02:25 PM 39.4958 -119.2169 341° North 463 533 32,400 537 Climbing Oakland Center
Mon 12:03:26 PM 39.6222 -119.2644 344° North 468 539 33,100 634 Climbing Oakland Center
Mon 12:04:28 PM 39.7483 -119.3169 342° North 472 543 33,700 439 Climbing Oakland Center
Mon 12:05:29 PM 39.8758 -119.3653 344° North 474 545 34,000 146 Climbing Oakland Center
Mon 12:06:31 PM 40.0022 -119.4203 342° North 478 550 34,000  Level Oakland Center
Mon 12:07:33 PM 40.1342 -119.4650 345° North 485 558 34,000  Level Oakland Center
Mon 12:08:34 PM 40.2878 -119.5311 342° North 483 556 34,000  Level Oakland Center
Mon 12:09:36 PM 40.4158 -119.5811 343° North 480 552 34,000  Level Oakland Center
Mon 12:10:37 PM 40.5414 -119.6347 342° North 477 549 34,000  Level Oakland Center
Mon 12:11:39 PM 40.6733 -119.6847 344° North 490 564 34,000  Level Oakland Center
Mon 12:12:40 PM 40.7992 -119.7364 343° North 483 556 34,000  Level Oakland Center
Mon 12:13:42 PM 40.9253 -119.7881 343° North 476 548 34,000  Level Oakland Center
Mon 12:14:04 PM 40.9736 -119.8111 340° North 474 545 34,000  Level Seattle Center
Mon 12:15:05 PM 41.1003 -119.8594 344° North 476 548 34,000  Level Seattle Center
Mon 12:15:45 PM 41.1731 -119.8925 341° North 469 540 34,000  Level Oakland Center
Mon 12:16:06 PM 41.2233 -119.9133 343° North 469 540 34,000  Level Seattle Center
Mon 12:17:07 PM 41.3489 -119.9656 343° North 473 544 34,000  Level Seattle Center
Mon 12:18:08 PM 41.4733 -120.0225 341° North 475 547 34,000  Level Seattle Center
Mon 12:19:09 PM 41.5953 -120.0878 338° Northwest 474 545 34,000  Level Seattle Center
Mon 12:20:10 PM 41.7178 -120.1475 340° North 471 542 34,000  Level Seattle Center
Mon 12:21:11 PM 41.8633 -120.2250 338° Northwest 471 542 34,000  Level Seattle Center
Mon 12:22:12 PM 41.9850 -120.2886 339° North 469 540 34,000  Level Seattle Center
Mon 12:23:13 PM 42.1042 -120.3478 340° North 467 537 34,000  Level Seattle Center
Mon 12:24:14 PM 42.2383 -120.3850 348° North 490 564 34,000  Level Seattle Center
Mon 12:25:15 PM 42.3686 -120.4278 346° North 482 555 34,000  Level Seattle Center
Mon 12:26:16 PM 42.4994 -120.4639 348° North 487 560 34,000  Level Seattle Center
Mon 12:27:17 PM 42.6303 -120.5064 347° North 486 559 34,000  Level Seattle Center
Mon 12:28:18 PM 42.7628 -120.5433 348° North 488 562 34,000  Level Seattle Center
Mon 12:29:19 PM 42.8917 -120.5869 346° North 481 554 34,000  Level Seattle Center
Mon 12:30:20 PM 43.0233 -120.6236 348° North 485 558 34,000  Level Seattle Center
Mon 12:31:21 PM 43.1528 -120.6669 346° North 483 556 34,000  Level Seattle Center
Mon 12:32:22 PM 43.3108 -120.7139 348° North 486 559 34,000  Level Seattle Center
Mon 12:33:23 PM 43.4406 -120.7514 348° North 480 552 34,000  Level Seattle Center
Mon 12:34:24 PM 43.5747 -120.7975 346° North 483 556 34,000  Level Seattle Center
Mon 12:35:25 PM 43.7089 -120.8342 349° North 491 565 34,000  Level Seattle Center
Mon 12:36:26 PM 43.8408 -120.8806 346° North 488 562 34,000  Level Seattle Center
Mon 12:37:27 PM 43.9747 -120.9197 348° North 491 565 34,000  Level Seattle Center
Mon 12:38:28 PM 44.1075 -120.9681 345° North 490 564 34,000  Level Seattle Center
Mon 12:39:29 PM 44.2447 -121.0081 348° North 503 579 34,000  Level Seattle Center
Mon 12:40:30 PM 44.3750 -121.0517 347° North 497 572 34,000  Level Seattle Center
Mon 12:41:31 PM 44.5092 -121.0925 348° North 499 574 34,000  Level Seattle Center
Mon 12:42:32 PM 44.6453 -121.1425 345° North 488 562 34,000  Level Seattle Center
Mon 12:43:33 PM 44.7800 -121.1828 348° North 493 567 34,000  Level Seattle Center
Mon 12:44:34 PM 44.9117 -121.2289 346° North 487 560 34,000  Level Seattle Center
Mon 12:45:36 PM 45.0461 -121.2708 348° North 491 565 34,000  Level Seattle Center
Mon 12:46:37 PM 45.1811 -121.3164 347° North 497 572 34,000  Level Seattle Center
Mon 12:47:38 PM 45.3425 -121.3722 346° North 498 573 34,000  Level Seattle Center
Mon 12:48:39 PM 45.4778 -121.4125 348° North 499 574 34,000  Level Seattle Center
Mon 12:49:40 PM 45.6114 -121.4622 345° North 496 571 34,000  Level Seattle Center
Mon 12:50:41 PM 45.7481 -121.5042 348° North 499 574 34,000  Level Seattle Center
Mon 12:51:42 PM 45.8822 -121.5547 345° North 500 575 34,000  Level Seattle Center
Mon 12:52:43 PM 46.0217 -121.5983 348° North 508 585 34,000  Level Seattle Center
Mon 12:53:44 PM 46.1594 -121.6478 346° North 511 588 34,000  Level Seattle Center
Mon 12:54:45 PM 46.2956 -121.6931 347° North 512 589 34,000  Level Seattle Center
Mon 12:55:46 PM 46.4311 -121.7450 345° North 511 588 34,000  Level Seattle Center
Mon 12:56:47 PM 46.5689 -121.7878 348° North 513 590 34,000  Level Seattle Center
Mon 12:57:48 PM 46.7050 -121.8417 345° North 514 592 34,000  Level Seattle Center
Mon 12:58:49 PM 46.8722 -121.8944 348° North 519 597 34,000 -885 Level Seattle Center
Mon 12:59:50 PM 47.0089 -121.9475 345° North 514 592 32,200 -1,820 Descending Seattle Center
Mon 01:00:51 PM 47.1422 -121.9944 347° North 499 574 30,300 -1,869 Descending Seattle Center
Mon 01:01:52 PM 47.2697 -122.0417 346° North 481 554 28,400 -1,869 Descending Seattle Center
Mon 01:02:53 PM 47.3961 -122.0881 346° North 474 545 26,500 -1,820 Descending Seattle Center
Mon 01:03:54 PM 47.5153 -122.1297 347° North 452 520 24,700 -2,066 Descending Seattle Center
Mon 01:04:55 PM 47.6497 -122.1789 346° North 430 495 22,300 -1,967 Descending Seattle Center
Mon 01:05:56 PM 47.7594 -122.2133 348° North 421 484 20,700 -1,574 Descending Seattle Center
Mon 01:06:57 PM 47.8647 -122.2461 348° North 399 459 19,100 -1,670 Descending Seattle Center
Mon 01:07:33 PM 47.9300 -122.2683 347° North 381 438 18,000 -1,869 Descending Seattle Center
Mon 01:07:58 PM 47.9642 -122.2817 345° North 378 435 17,200 -2,093 Descending Seattle Center
Mon 01:08:59 PM 48.0606 -122.3128 348° North 361 415 15,000 -1,967 Descending Seattle Center
Mon 01:10:00 PM 48.1522 -122.3408 348° North 342 394 13,200 -1,820 Descending Seattle Center
Mon 01:11:01 PM 48.2611 -122.3703 350° North 334 384 11,300 -1,623 Descending Seattle Center
Mon 01:12:02 PM 48.3453 -122.4008 346° North 316 364 9,900 -1,279 Descending Seattle Center
Mon 01:13:03 PM 48.4286 -122.4256 349° North 311 358 8,700 -1,230 Descending Seattle Center
Mon 01:14:04 PM 48.5125 -122.4528 348° North 313 360 7,400 -1,279 Descending Seattle Center
Mon 01:15:05 PM 48.5944 -122.4753 350° North 307 353 6,100 -689 Descending Seattle Center
Mon 01:16:06 PM 48.6664 -122.4725 North 270 311 6,000 -156 Descending Seattle Center
Mon 01:16:22 PM 48.6833 -122.4667 13° North 260 299 5,900 -868 Descending Vancouver Center
Mon 01:17:22 PM 48.7500 -122.4500 North 260 299 4,900 -1,000 Descending Vancouver Center
Mon 01:18:22 PM 48.8333 -122.4333 North 260 299 3,900 -1,050 Descending Vancouver Center
Mon 01:19:22 PM 48.9000 -122.4333 360° North 250 288 2,800 -950 Descending Vancouver Center
Mon 01:20:22 PM 48.9500 -122.4833 327° Northwest 230 265 2,000 -400 Descending Vancouver Center
Mon 01:21:22 PM 48.9167 -122.5333 225° Southwest 180 207 2,000  Level Vancouver Center

Login

Don't have an account? Register now (free) for customized features, flight alerts, and more!